sensor_id;sensor_type;location;lat;lon;timestamp;P1;durP1;ratioP1;P2;durP2;ratioP2
21833;SDS011;11079;51.092;3.458;2023-04-08T00:01:43;13.07;;;6.97;;
21833;SDS011;11079;51.092;3.458;2023-04-08T00:04:09;12.20;;;6.45;;
21833;SDS011;11079;51.092;3.458;2023-04-08T00:06:38;13.38;;;6.88;;
21833;SDS011;11079;51.092;3.458;2023-04-08T00:09:03;14.88;;;6.55;;
21833;SDS011;11079;51.092;3.458;2023-04-08T00:11:29;11.32;;;6.53;;
21833;SDS011;11079;51.092;3.458;2023-04-08T00:13:55;16.48;;;6.28;;
21833;SDS011;11079;51.092;3.458;2023-04-08T00:16:21;10.75;;;5.88;;
21833;SDS011;11079;51.092;3.458;2023-04-08T00:18:46;13.93;;;6.65;;
21833;SDS011;11079;51.092;3.458;2023-04-08T00:21:13;14.75;;;5.95;;
21833;SDS011;11079;51.092;3.458;2023-04-08T00:23:44;11.93;;;5.90;;
21833;SDS011;11079;51.092;3.458;2023-04-08T00:26:10;11.20;;;5.60;;
21833;SDS011;11079;51.092;3.458;2023-04-08T00:28:36;16.27;;;6.28;;
21833;SDS011;11079;51.092;3.458;2023-04-08T00:31:02;10.07;;;5.80;;
21833;SDS011;11079;51.092;3.458;2023-04-08T00:33:28;16.95;;;6.45;;
21833;SDS011;11079;51.092;3.458;2023-04-08T00:35:53;13.30;;;5.95;;
21833;SDS011;11079;51.092;3.458;2023-04-08T00:38:19;15.48;;;6.63;;
21833;SDS011;11079;51.092;3.458;2023-04-08T00:40:45;11.73;;;6.38;;
21833;SDS011;11079;51.092;3.458;2023-04-08T00:43:10;14.40;;;6.28;;
21833;SDS011;11079;51.092;3.458;2023-04-08T00:45:36;11.75;;;6.60;;
21833;SDS011;11079;51.092;3.458;2023-04-08T00:48:02;13.32;;;6.20;;
21833;SDS011;11079;51.092;3.458;2023-04-08T00:50:28;16.08;;;7.05;;
21833;SDS011;11079;51.092;3.458;2023-04-08T00:52:54;11.35;;;6.63;;
21833;SDS011;11079;51.092;3.458;2023-04-08T00:55:20;12.95;;;6.03;;
21833;SDS011;11079;51.092;3.458;2023-04-08T00:57:45;9.95;;;5.82;;
21833;SDS011;11079;51.092;3.458;2023-04-08T01:00:12;13.48;;;6.63;;
21833;SDS011;11079;51.092;3.458;2023-04-08T01:07:54;9.88;;;6.78;;
21833;SDS011;11079;51.092;3.458;2023-04-08T01:10:30;11.65;;;5.47;;
21833;SDS011;11079;51.092;3.458;2023-04-08T01:13:01;10.35;;;5.28;;
21833;SDS011;11079;51.092;3.458;2023-04-08T01:15:30;13.98;;;5.63;;
21833;SDS011;11079;51.092;3.458;2023-04-08T01:17:58;12.68;;;6.25;;
21833;SDS011;11079;51.092;3.458;2023-04-08T01:20:25;11.80;;;5.78;;
21833;SDS011;11079;51.092;3.458;2023-04-08T01:25:30;9.68;;;6.50;;
21833;SDS011;11079;51.092;3.458;2023-04-08T01:28:01;8.75;;;5.60;;
21833;SDS011;11079;51.092;3.458;2023-04-08T01:30:29;9.40;;;5.82;;
21833;SDS011;11079;51.092;3.458;2023-04-08T01:32:56;10.15;;;5.75;;
21833;SDS011;11079;51.092;3.458;2023-04-08T01:35:23;8.15;;;6.05;;
21833;SDS011;11079;51.092;3.458;2023-04-08T01:37:50;10.27;;;6.53;;
21833;SDS011;11079;51.092;3.458;2023-04-08T01:40:19;12.02;;;6.07;;
21833;SDS011;11079;51.092;3.458;2023-04-08T01:42:46;7.32;;;5.50;;
21833;SDS011;11079;51.092;3.458;2023-04-08T01:45:13;9.32;;;6.20;;
21833;SDS011;11079;51.092;3.458;2023-04-08T01:47:40;9.88;;;6.43;;
21833;SDS011;11079;51.092;3.458;2023-04-08T01:50:07;13.43;;;6.20;;
21833;SDS011;11079;51.092;3.458;2023-04-08T01:52:34;12.60;;;6.72;;
21833;SDS011;11079;51.092;3.458;2023-04-08T01:55:01;7.55;;;5.97;;
21833;SDS011;11079;51.092;3.458;2023-04-08T01:57:29;12.18;;;6.20;;
21833;SDS011;11079;51.092;3.458;2023-04-08T02:00:00;10.30;;;5.88;;
21833;SDS011;11079;51.092;3.458;2023-04-08T02:02:30;12.70;;;6.13;;
21833;SDS011;11079;51.092;3.458;2023-04-08T02:04:56;13.57;;;7.25;;
21833;SDS011;11079;51.092;3.458;2023-04-08T02:07:22;9.73;;;6.28;;
21833;SDS011;11079;51.092;3.458;2023-04-08T02:09:49;10.75;;;6.70;;
21833;SDS011;11079;51.092;3.458;2023-04-08T02:12:15;10.45;;;6.50;;
21833;SDS011;11079;51.092;3.458;2023-04-08T02:14:41;11.25;;;5.88;;
21833;SDS011;11079;51.092;3.458;2023-04-08T02:17:13;10.13;;;6.55;;
21833;SDS011;11079;51.092;3.458;2023-04-08T02:22:37;18.05;;;6.45;;
21833;SDS011;11079;51.092;3.458;2023-04-08T02:25:20;9.95;;;6.50;;
21833;SDS011;11079;51.092;3.458;2023-04-08T02:27:48;11.13;;;6.07;;
21833;SDS011;11079;51.092;3.458;2023-04-08T02:30:16;10.05;;;5.45;;
21833;SDS011;11079;51.092;3.458;2023-04-08T02:32:43;13.82;;;6.18;;
21833;SDS011;11079;51.092;3.458;2023-04-08T02:35:11;9.93;;;5.47;;
21833;SDS011;11079;51.092;3.458;2023-04-08T02:37:38;12.20;;;6.15;;
21833;SDS011;11079;51.092;3.458;2023-04-08T02:40:21;10.55;;;5.60;;
21833;SDS011;11079;51.092;3.458;2023-04-08T02:42:56;12.40;;;6.00;;
21833;SDS011;11079;51.092;3.458;2023-04-08T02:45:30;10.63;;;6.10;;
21833;SDS011;11079;51.092;3.458;2023-04-08T02:47:57;9.30;;;5.65;;
21833;SDS011;11079;51.092;3.458;2023-04-08T02:50:24;9.80;;;5.97;;
21833;SDS011;11079;51.092;3.458;2023-04-08T02:52:50;9.38;;;6.30;;
21833;SDS011;11079;51.092;3.458;2023-04-08T02:55:15;9.23;;;5.65;;
21833;SDS011;11079;51.092;3.458;2023-04-08T02:57:41;7.45;;;5.88;;
21833;SDS011;11079;51.092;3.458;2023-04-08T03:00:07;9.00;;;5.18;;
21833;SDS011;11079;51.092;3.458;2023-04-08T03:02:34;8.27;;;6.68;;
21833;SDS011;11079;51.092;3.458;2023-04-08T03:04:59;7.20;;;6.15;;
21833;SDS011;11079;51.092;3.458;2023-04-08T03:07:25;8.63;;;6.10;;
21833;SDS011;11079;51.092;3.458;2023-04-08T03:09:51;9.23;;;5.82;;
21833;SDS011;11079;51.092;3.458;2023-04-08T03:12:19;11.43;;;6.50;;
21833;SDS011;11079;51.092;3.458;2023-04-08T03:14:45;7.28;;;5.78;;
21833;SDS011;11079;51.092;3.458;2023-04-08T03:17:10;9.57;;;6.28;;
21833;SDS011;11079;51.092;3.458;2023-04-08T03:19:36;8.55;;;6.10;;
21833;SDS011;11079;51.092;3.458;2023-04-08T03:22:02;9.82;;;5.90;;
21833;SDS011;11079;51.092;3.458;2023-04-08T03:24:27;9.65;;;5.50;;
21833;SDS011;11079;51.092;3.458;2023-04-08T03:26:53;9.90;;;5.85;;
21833;SDS011;11079;51.092;3.458;2023-04-08T03:29:18;11.25;;;5.57;;
21833;SDS011;11079;51.092;3.458;2023-04-08T03:31:44;9.00;;;5.90;;
21833;SDS011;11079;51.092;3.458;2023-04-08T03:34:10;10.07;;;6.22;;
21833;SDS011;11079;51.092;3.458;2023-04-08T03:36:35;10.18;;;5.97;;
21833;SDS011;11079;51.092;3.458;2023-04-08T03:39:01;11.10;;;5.60;;
21833;SDS011;11079;51.092;3.458;2023-04-08T03:41:27;10.65;;;6.32;;
21833;SDS011;11079;51.092;3.458;2023-04-08T03:43:53;12.32;;;6.80;;
21833;SDS011;11079;51.092;3.458;2023-04-08T03:46:19;7.70;;;5.68;;
21833;SDS011;11079;51.092;3.458;2023-04-08T03:48:46;10.07;;;6.40;;
21833;SDS011;11079;51.092;3.458;2023-04-08T03:51:12;9.15;;;6.28;;
21833;SDS011;11079;51.092;3.458;2023-04-08T03:53:37;10.18;;;6.25;;
21833;SDS011;11079;51.092;3.458;2023-04-08T03:56:03;11.18;;;6.65;;
21833;SDS011;11079;51.092;3.458;2023-04-08T03:58:29;8.73;;;6.85;;
21833;SDS011;11079;51.092;3.458;2023-04-08T04:00:55;9.25;;;6.03;;
21833;SDS011;11079;51.092;3.458;2023-04-08T04:03:21;10.02;;;6.03;;
21833;SDS011;11079;51.092;3.458;2023-04-08T04:05:47;9.35;;;5.55;;
21833;SDS011;11079;51.092;3.458;2023-04-08T04:08:13;11.25;;;6.50;;
21833;SDS011;11079;51.092;3.458;2023-04-08T04:10:39;10.20;;;6.70;;
21833;SDS011;11079;51.092;3.458;2023-04-08T04:13:05;7.63;;;6.68;;
21833;SDS011;11079;51.092;3.458;2023-04-08T04:15:30;10.57;;;6.75;;
21833;SDS011;11079;51.092;3.458;2023-04-08T04:17:56;9.98;;;6.88;;
21833;SDS011;11079;51.092;3.458;2023-04-08T04:20:21;9.93;;;6.63;;
21833;SDS011;11079;51.092;3.458;2023-04-08T04:22:47;11.30;;;7.22;;
21833;SDS011;11079;51.092;3.458;2023-04-08T04:25:13;13.57;;;7.32;;
21833;SDS011;11079;51.092;3.458;2023-04-08T04:27:38;15.18;;;6.75;;
21833;SDS011;11079;51.092;3.458;2023-04-08T04:30:04;11.45;;;6.88;;
21833;SDS011;11079;51.092;3.458;2023-04-08T04:32:31;10.93;;;7.53;;
21833;SDS011;11079;51.092;3.458;2023-04-08T04:34:56;12.98;;;7.65;;
21833;SDS011;11079;51.092;3.458;2023-04-08T04:37:22;10.60;;;7.15;;
21833;SDS011;11079;51.092;3.458;2023-04-08T04:39:47;9.07;;;6.68;;
21833;SDS011;11079;51.092;3.458;2023-04-08T04:42:13;11.02;;;6.40;;
21833;SDS011;11079;51.092;3.458;2023-04-08T04:44:39;9.25;;;6.10;;
21833;SDS011;11079;51.092;3.458;2023-04-08T04:47:05;9.95;;;6.55;;
21833;SDS011;11079;51.092;3.458;2023-04-08T04:49:30;10.45;;;6.45;;
21833;SDS011;11079;51.092;3.458;2023-04-08T04:51:56;8.38;;;6.38;;
21833;SDS011;11079;51.092;3.458;2023-04-08T04:54:21;9.07;;;6.20;;
21833;SDS011;11079;51.092;3.458;2023-04-08T04:56:47;10.60;;;6.32;;
21833;SDS011;11079;51.092;3.458;2023-04-08T04:59:13;8.63;;;5.70;;
21833;SDS011;11079;51.092;3.458;2023-04-08T05:01:38;11.43;;;6.47;;
21833;SDS011;11079;51.092;3.458;2023-04-08T05:04:05;11.38;;;6.55;;
21833;SDS011;11079;51.092;3.458;2023-04-08T05:06:31;10.18;;;6.45;;
21833;SDS011;11079;51.092;3.458;2023-04-08T05:08:57;10.90;;;7.18;;
21833;SDS011;11079;51.092;3.458;2023-04-08T05:11:23;11.38;;;5.93;;
21833;SDS011;11079;51.092;3.458;2023-04-08T05:13:48;10.57;;;7.40;;
21833;SDS011;11079;51.092;3.458;2023-04-08T05:16:14;10.45;;;6.85;;
21833;SDS011;11079;51.092;3.458;2023-04-08T05:18:40;20.65;;;8.80;;
21833;SDS011;11079;51.092;3.458;2023-04-08T05:21:06;11.20;;;7.35;;
21833;SDS011;11079;51.092;3.458;2023-04-08T05:23:31;9.70;;;7.57;;
21833;SDS011;11079;51.092;3.458;2023-04-08T05:25:58;11.85;;;7.75;;
21833;SDS011;11079;51.092;3.458;2023-04-08T05:28:25;11.60;;;7.85;;
21833;SDS011;11079;51.092;3.458;2023-04-08T05:30:51;11.27;;;7.55;;
21833;SDS011;11079;51.092;3.458;2023-04-08T05:33:17;8.63;;;7.10;;
21833;SDS011;11079;51.092;3.458;2023-04-08T05:35:43;8.77;;;6.70;;
21833;SDS011;11079;51.092;3.458;2023-04-08T05:38:09;9.77;;;7.22;;
21833;SDS011;11079;51.092;3.458;2023-04-08T05:40:35;11.85;;;7.50;;
21833;SDS011;11079;51.092;3.458;2023-04-08T05:43:01;13.43;;;8.27;;
21833;SDS011;11079;51.092;3.458;2023-04-08T05:45:26;11.48;;;8.48;;
21833;SDS011;11079;51.092;3.458;2023-04-08T05:47:53;12.95;;;7.80;;
21833;SDS011;11079;51.092;3.458;2023-04-08T05:50:18;9.20;;;6.95;;
21833;SDS011;11079;51.092;3.458;2023-04-08T05:52:44;12.32;;;7.40;;
21833;SDS011;11079;51.092;3.458;2023-04-08T05:55:10;9.35;;;6.70;;
21833;SDS011;11079;51.092;3.458;2023-04-08T05:57:36;7.95;;;7.07;;
21833;SDS011;11079;51.092;3.458;2023-04-08T06:00:03;10.18;;;6.38;;
21833;SDS011;11079;51.092;3.458;2023-04-08T06:02:33;9.27;;;6.30;;
21833;SDS011;11079;51.092;3.458;2023-04-08T06:05:00;11.00;;;6.32;;
21833;SDS011;11079;51.092;3.458;2023-04-08T06:07:26;9.27;;;6.45;;
21833;SDS011;11079;51.092;3.458;2023-04-08T06:09:52;9.98;;;6.78;;
21833;SDS011;11079;51.092;3.458;2023-04-08T06:12:17;8.73;;;6.75;;
21833;SDS011;11079;51.092;3.458;2023-04-08T06:14:43;12.88;;;6.80;;
21833;SDS011;11079;51.092;3.458;2023-04-08T06:17:08;9.57;;;6.40;;
21833;SDS011;11079;51.092;3.458;2023-04-08T06:19:34;12.23;;;6.80;;
21833;SDS011;11079;51.092;3.458;2023-04-08T06:22:00;10.30;;;7.60;;
21833;SDS011;11079;51.092;3.458;2023-04-08T06:24:25;11.00;;;6.25;;
21833;SDS011;11079;51.092;3.458;2023-04-08T06:26:52;8.38;;;6.10;;
21833;SDS011;11079;51.092;3.458;2023-04-08T06:29:18;9.75;;;6.90;;
21833;SDS011;11079;51.092;3.458;2023-04-08T06:31:45;8.65;;;6.05;;
21833;SDS011;11079;51.092;3.458;2023-04-08T06:34:11;9.30;;;6.53;;
21833;SDS011;11079;51.092;3.458;2023-04-08T06:36:37;11.07;;;6.65;;
21833;SDS011;11079;51.092;3.458;2023-04-08T06:39:02;10.50;;;6.70;;
21833;SDS011;11079;51.092;3.458;2023-04-08T06:41:28;9.32;;;6.78;;
21833;SDS011;11079;51.092;3.458;2023-04-08T06:43:54;8.63;;;7.03;;
21833;SDS011;11079;51.092;3.458;2023-04-08T06:46:20;10.90;;;6.88;;
21833;SDS011;11079;51.092;3.458;2023-04-08T06:48:46;8.05;;;6.75;;
21833;SDS011;11079;51.092;3.458;2023-04-08T06:51:12;10.43;;;6.75;;
21833;SDS011;11079;51.092;3.458;2023-04-08T06:53:37;12.43;;;6.53;;
21833;SDS011;11079;51.092;3.458;2023-04-08T06:56:03;7.72;;;6.00;;
21833;SDS011;11079;51.092;3.458;2023-04-08T06:58:29;9.15;;;6.55;;
21833;SDS011;11079;51.092;3.458;2023-04-08T07:00:54;10.70;;;6.45;;
21833;SDS011;11079;51.092;3.458;2023-04-08T07:03:20;10.93;;;7.00;;
21833;SDS011;11079;51.092;3.458;2023-04-08T07:05:46;11.93;;;6.88;;
21833;SDS011;11079;51.092;3.458;2023-04-08T07:08:12;9.38;;;6.05;;
21833;SDS011;11079;51.092;3.458;2023-04-08T07:10:37;9.13;;;6.65;;
21833;SDS011;11079;51.092;3.458;2023-04-08T07:13:03;11.85;;;6.68;;
21833;SDS011;11079;51.092;3.458;2023-04-08T07:15:29;8.73;;;6.45;;
21833;SDS011;11079;51.092;3.458;2023-04-08T07:17:55;10.00;;;6.28;;
21833;SDS011;11079;51.092;3.458;2023-04-08T07:20:21;8.23;;;6.55;;
21833;SDS011;11079;51.092;3.458;2023-04-08T07:22:47;10.50;;;6.57;;
21833;SDS011;11079;51.092;3.458;2023-04-08T07:25:13;9.93;;;6.10;;
21833;SDS011;11079;51.092;3.458;2023-04-08T07:27:39;10.35;;;9.25;;
21833;SDS011;11079;51.092;3.458;2023-04-08T07:30:04;8.13;;;7.00;;
21833;SDS011;11079;51.092;3.458;2023-04-08T07:32:33;11.88;;;8.45;;
21833;SDS011;11079;51.092;3.458;2023-04-08T07:35:00;8.88;;;7.97;;
21833;SDS011;11079;51.092;3.458;2023-04-08T07:37:38;9.82;;;7.28;;
21833;SDS011;11079;51.092;3.458;2023-04-08T07:40:05;9.05;;;7.65;;
21833;SDS011;11079;51.092;3.458;2023-04-08T07:42:31;10.73;;;7.50;;
21833;SDS011;11079;51.092;3.458;2023-04-08T07:44:57;11.98;;;6.88;;
21833;SDS011;11079;51.092;3.458;2023-04-08T07:47:23;12.50;;;8.68;;
21833;SDS011;11079;51.092;3.458;2023-04-08T07:49:50;10.25;;;7.97;;
21833;SDS011;11079;51.092;3.458;2023-04-08T07:52:16;12.68;;;8.00;;
21833;SDS011;11079;51.092;3.458;2023-04-08T07:54:42;13.07;;;7.72;;
21833;SDS011;11079;51.092;3.458;2023-04-08T07:57:08;12.73;;;8.73;;
21833;SDS011;11079;51.092;3.458;2023-04-08T07:59:34;9.38;;;7.63;;
21833;SDS011;11079;51.092;3.458;2023-04-08T08:02:00;11.70;;;9.02;;
21833;SDS011;11079;51.092;3.458;2023-04-08T08:04:26;13.00;;;8.13;;
21833;SDS011;11079;51.092;3.458;2023-04-08T08:06:52;10.35;;;6.90;;
21833;SDS011;11079;51.092;3.458;2023-04-08T08:09:17;8.35;;;7.30;;
21833;SDS011;11079;51.092;3.458;2023-04-08T08:11:43;11.20;;;7.28;;
21833;SDS011;11079;51.092;3.458;2023-04-08T08:14:08;8.77;;;6.15;;
21833;SDS011;11079;51.092;3.458;2023-04-08T08:16:35;10.90;;;6.57;;
21833;SDS011;11079;51.092;3.458;2023-04-08T08:19:02;8.82;;;6.00;;
21833;SDS011;11079;51.092;3.458;2023-04-08T08:21:30;11.85;;;5.95;;
21833;SDS011;11079;51.092;3.458;2023-04-08T08:23:57;9.18;;;5.60;;
21833;SDS011;11079;51.092;3.458;2023-04-08T08:26:23;8.93;;;5.97;;
21833;SDS011;11079;51.092;3.458;2023-04-08T08:28:49;11.90;;;5.47;;
21833;SDS011;11079;51.092;3.458;2023-04-08T08:31:15;8.10;;;5.32;;
21833;SDS011;11079;51.092;3.458;2023-04-08T08:33:40;6.05;;;4.93;;
21833;SDS011;11079;51.092;3.458;2023-04-08T08:36:07;8.07;;;4.32;;
21833;SDS011;11079;51.092;3.458;2023-04-08T08:38:34;7.38;;;4.53;;
21833;SDS011;11079;51.092;3.458;2023-04-08T08:40:59;5.80;;;4.10;;
21833;SDS011;11079;51.092;3.458;2023-04-08T08:43:27;9.32;;;8.02;;
21833;SDS011;11079;51.092;3.458;2023-04-08T08:45:53;7.30;;;5.75;;
21833;SDS011;11079;51.092;3.458;2023-04-08T08:48:19;7.80;;;4.63;;
21833;SDS011;11079;51.092;3.458;2023-04-08T08:50:45;9.40;;;4.93;;
21833;SDS011;11079;51.092;3.458;2023-04-08T08:53:11;6.93;;;4.72;;
21833;SDS011;11079;51.092;3.458;2023-04-08T08:55:38;7.68;;;5.65;;
21833;SDS011;11079;51.092;3.458;2023-04-08T08:58:04;9.23;;;6.85;;
21833;SDS011;11079;51.092;3.458;2023-04-08T09:00:35;10.13;;;6.78;;
21833;SDS011;11079;51.092;3.458;2023-04-08T09:05:54;9.48;;;4.88;;
21833;SDS011;11079;51.092;3.458;2023-04-08T09:08:31;9.95;;;5.90;;
21833;SDS011;11079;51.092;3.458;2023-04-08T09:11:14;8.00;;;5.65;;
21833;SDS011;11079;51.092;3.458;2023-04-08T09:13:44;13.65;;;8.40;;
21833;SDS011;11079;51.092;3.458;2023-04-08T09:16:19;6.15;;;4.65;;
21833;SDS011;11079;51.092;3.458;2023-04-08T09:18:47;8.43;;;4.72;;
21833;SDS011;11079;51.092;3.458;2023-04-08T09:21:13;5.97;;;4.13;;
21833;SDS011;11079;51.092;3.458;2023-04-08T09:23:47;6.22;;;4.45;;
21833;SDS011;11079;51.092;3.458;2023-04-08T09:26:20;10.18;;;5.05;;
21833;SDS011;11079;51.092;3.458;2023-04-08T09:28:58;7.55;;;4.13;;
21833;SDS011;11079;51.092;3.458;2023-04-08T09:31:27;8.48;;;4.68;;
21833;SDS011;11079;51.092;3.458;2023-04-08T09:34:18;8.25;;;4.40;;
21833;SDS011;11079;51.092;3.458;2023-04-08T09:36:45;10.43;;;5.50;;
21833;SDS011;11079;51.092;3.458;2023-04-08T09:39:13;6.70;;;4.32;;
21833;SDS011;11079;51.092;3.458;2023-04-08T09:41:40;6.13;;;4.78;;
21833;SDS011;11079;51.092;3.458;2023-04-08T09:44:07;9.00;;;5.63;;
21833;SDS011;11079;51.092;3.458;2023-04-08T09:49:18;6.72;;;5.10;;
21833;SDS011;11079;51.092;3.458;2023-04-08T09:51:57;8.43;;;5.25;;
21833;SDS011;11079;51.092;3.458;2023-04-08T09:54:36;7.03;;;5.18;;
21833;SDS011;11079;51.092;3.458;2023-04-08T09:57:16;6.03;;;4.75;;
21833;SDS011;11079;51.092;3.458;2023-04-08T09:59:51;8.05;;;4.47;;
21833;SDS011;11079;51.092;3.458;2023-04-08T10:02:24;7.65;;;4.72;;
21833;SDS011;11079;51.092;3.458;2023-04-08T10:04:55;7.18;;;4.85;;
21833;SDS011;11079;51.092;3.458;2023-04-08T10:07:24;7.75;;;5.97;;
21833;SDS011;11079;51.092;3.458;2023-04-08T10:09:49;6.57;;;5.38;;
21833;SDS011;11079;51.092;3.458;2023-04-08T10:12:16;7.72;;;5.05;;
21833;SDS011;11079;51.092;3.458;2023-04-08T10:15:04;7.88;;;4.70;;
21833;SDS011;11079;51.092;3.458;2023-04-08T10:23:01;8.73;;;4.90;;
21833;SDS011;11079;51.092;3.458;2023-04-08T10:27:59;15.43;;;11.55;;
21833;SDS011;11079;51.092;3.458;2023-04-08T10:32:57;11.43;;;7.25;;
21833;SDS011;11079;51.092;3.458;2023-04-08T10:35:36;11.25;;;6.72;;
21833;SDS011;11079;51.092;3.458;2023-04-08T10:38:06;12.60;;;7.63;;
21833;SDS011;11079;51.092;3.458;2023-04-08T10:40:36;9.60;;;7.00;;
21833;SDS011;11079;51.092;3.458;2023-04-08T10:43:03;13.35;;;8.30;;
21833;SDS011;11079;51.092;3.458;2023-04-08T10:45:32;12.70;;;10.80;;
21833;SDS011;11079;51.092;3.458;2023-04-08T10:50:55;14.10;;;9.48;;
21833;SDS011;11079;51.092;3.458;2023-04-08T10:56:02;13.73;;;10.30;;
21833;SDS011;11079;51.092;3.458;2023-04-08T10:58:32;17.70;;;12.02;;
21833;SDS011;11079;51.092;3.458;2023-04-08T11:01:05;17.15;;;14.20;;
21833;SDS011;11079;51.092;3.458;2023-04-08T11:03:34;23.33;;;16.40;;
21833;SDS011;11079;51.092;3.458;2023-04-08T11:06:03;16.45;;;11.70;;
21833;SDS011;11079;51.092;3.458;2023-04-08T11:08:30;16.45;;;11.57;;
21833;SDS011;11079;51.092;3.458;2023-04-08T11:10:57;15.55;;;10.50;;
21833;SDS011;11079;51.092;3.458;2023-04-08T11:13:25;13.98;;;11.02;;
21833;SDS011;11079;51.092;3.458;2023-04-08T11:15:51;15.35;;;12.30;;
21833;SDS011;11079;51.092;3.458;2023-04-08T11:18:17;12.18;;;8.88;;
21833;SDS011;11079;51.092;3.458;2023-04-08T11:20:45;12.15;;;9.95;;
21833;SDS011;11079;51.092;3.458;2023-04-08T11:23:14;13.30;;;8.82;;
21833;SDS011;11079;51.092;3.458;2023-04-08T11:25:44;11.57;;;7.85;;
21833;SDS011;11079;51.092;3.458;2023-04-08T11:28:11;11.45;;;8.48;;
21833;SDS011;11079;51.092;3.458;2023-04-08T11:30:38;12.70;;;8.32;;
21833;SDS011;11079;51.092;3.458;2023-04-08T11:33:05;8.05;;;5.47;;
21833;SDS011;11079;51.092;3.458;2023-04-08T11:35:31;10.57;;;7.07;;
21833;SDS011;11079;51.092;3.458;2023-04-08T11:37:57;13.15;;;7.63;;
21833;SDS011;11079;51.092;3.458;2023-04-08T11:40:24;10.95;;;6.97;;
21833;SDS011;11079;51.092;3.458;2023-04-08T11:42:50;9.13;;;6.05;;
21833;SDS011;11079;51.092;3.458;2023-04-08T11:45:17;9.25;;;6.43;;
21833;SDS011;11079;51.092;3.458;2023-04-08T11:47:45;8.32;;;6.93;;
21833;SDS011;11079;51.092;3.458;2023-04-08T11:50:11;10.65;;;7.43;;
21833;SDS011;11079;51.092;3.458;2023-04-08T11:52:40;9.65;;;7.07;;
21833;SDS011;11079;51.092;3.458;2023-04-08T11:55:07;19.58;;;17.48;;
21833;SDS011;11079;51.092;3.458;2023-04-08T11:57:34;13.55;;;8.18;;
21833;SDS011;11079;51.092;3.458;2023-04-08T12:00:01;10.68;;;7.10;;
21833;SDS011;11079;51.092;3.458;2023-04-08T12:02:29;8.90;;;7.05;;
21833;SDS011;11079;51.092;3.458;2023-04-08T12:04:55;14.10;;;7.43;;
21833;SDS011;11079;51.092;3.458;2023-04-08T12:07:20;10.88;;;7.95;;
21833;SDS011;11079;51.092;3.458;2023-04-08T12:09:46;9.85;;;7.85;;
21833;SDS011;11079;51.092;3.458;2023-04-08T12:12:12;10.05;;;7.82;;
21833;SDS011;11079;51.092;3.458;2023-04-08T12:14:37;9.85;;;7.43;;
21833;SDS011;11079;51.092;3.458;2023-04-08T12:17:03;10.38;;;6.85;;
21833;SDS011;11079;51.092;3.458;2023-04-08T12:19:28;12.30;;;6.90;;
21833;SDS011;11079;51.092;3.458;2023-04-08T12:21:54;10.32;;;8.30;;
21833;SDS011;11079;51.092;3.458;2023-04-08T12:24:19;14.73;;;9.52;;
21833;SDS011;11079;51.092;3.458;2023-04-08T12:26:45;13.18;;;8.60;;
21833;SDS011;11079;51.092;3.458;2023-04-08T12:29:11;13.90;;;8.68;;
21833;SDS011;11079;51.092;3.458;2023-04-08T12:31:37;11.30;;;8.15;;
21833;SDS011;11079;51.092;3.458;2023-04-08T12:34:02;12.70;;;8.38;;
21833;SDS011;11079;51.092;3.458;2023-04-08T12:36:28;11.45;;;10.07;;
21833;SDS011;11079;51.092;3.458;2023-04-08T12:38:55;14.43;;;10.07;;
21833;SDS011;11079;51.092;3.458;2023-04-08T12:41:20;18.67;;;10.43;;
21833;SDS011;11079;51.092;3.458;2023-04-08T12:43:48;12.05;;;8.15;;
21833;SDS011;11079;51.092;3.458;2023-04-08T12:46:13;12.57;;;8.38;;
21833;SDS011;11079;51.092;3.458;2023-04-08T12:48:39;11.98;;;8.45;;
21833;SDS011;11079;51.092;3.458;2023-04-08T12:51:06;13.20;;;8.35;;
21833;SDS011;11079;51.092;3.458;2023-04-08T12:53:34;12.50;;;8.13;;
21833;SDS011;11079;51.092;3.458;2023-04-08T12:56:00;10.75;;;8.18;;
21833;SDS011;11079;51.092;3.458;2023-04-08T12:58:26;10.48;;;7.70;;
21833;SDS011;11079;51.092;3.458;2023-04-08T13:00:52;11.35;;;7.18;;
21833;SDS011;11079;51.092;3.458;2023-04-08T13:03:18;14.55;;;8.82;;
21833;SDS011;11079;51.092;3.458;2023-04-08T13:05:44;12.73;;;9.18;;
21833;SDS011;11079;51.092;3.458;2023-04-08T13:08:09;12.38;;;7.75;;
21833;SDS011;11079;51.092;3.458;2023-04-08T13:10:38;14.50;;;9.70;;
21833;SDS011;11079;51.092;3.458;2023-04-08T13:13:05;11.10;;;8.50;;
21833;SDS011;11079;51.092;3.458;2023-04-08T13:15:31;14.73;;;10.38;;
21833;SDS011;11079;51.092;3.458;2023-04-08T13:17:58;16.23;;;10.00;;
21833;SDS011;11079;51.092;3.458;2023-04-08T13:20:25;17.13;;;10.25;;
21833;SDS011;11079;51.092;3.458;2023-04-08T13:22:51;18.90;;;11.55;;
21833;SDS011;11079;51.092;3.458;2023-04-08T13:25:17;19.23;;;12.75;;
21833;SDS011;11079;51.092;3.458;2023-04-08T13:27:44;16.48;;;11.88;;
21833;SDS011;11079;51.092;3.458;2023-04-08T13:30:10;19.75;;;12.63;;
21833;SDS011;11079;51.092;3.458;2023-04-08T13:32:37;16.50;;;11.95;;
21833;SDS011;11079;51.092;3.458;2023-04-08T13:35:02;18.15;;;12.80;;
21833;SDS011;11079;51.092;3.458;2023-04-08T13:37:28;16.38;;;12.48;;
21833;SDS011;11079;51.092;3.458;2023-04-08T13:39:54;18.98;;;13.50;;
21833;SDS011;11079;51.092;3.458;2023-04-08T13:42:21;20.38;;;14.15;;
21833;SDS011;11079;51.092;3.458;2023-04-08T13:44:47;19.38;;;13.55;;
21833;SDS011;11079;51.092;3.458;2023-04-08T13:47:13;19.88;;;14.10;;
21833;SDS011;11079;51.092;3.458;2023-04-08T13:49:40;20.88;;;15.18;;
21833;SDS011;11079;51.092;3.458;2023-04-08T13:52:06;19.60;;;13.50;;
21833;SDS011;11079;51.092;3.458;2023-04-08T13:54:31;20.80;;;15.15;;
21833;SDS011;11079;51.092;3.458;2023-04-08T13:56:57;23.33;;;16.05;;
21833;SDS011;11079;51.092;3.458;2023-04-08T13:59:23;21.30;;;15.23;;
21833;SDS011;11079;51.092;3.458;2023-04-08T14:01:48;22.27;;;15.75;;
21833;SDS011;11079;51.092;3.458;2023-04-08T14:04:21;21.77;;;15.25;;
21833;SDS011;11079;51.092;3.458;2023-04-08T14:06:47;21.38;;;15.02;;
21833;SDS011;11079;51.092;3.458;2023-04-08T14:09:17;26.15;;;16.80;;
21833;SDS011;11079;51.092;3.458;2023-04-08T14:11:43;21.95;;;13.95;;
21833;SDS011;11079;51.092;3.458;2023-04-08T14:14:09;20.17;;;13.55;;
21833;SDS011;11079;51.092;3.458;2023-04-08T14:16:35;21.92;;;16.08;;
21833;SDS011;11079;51.092;3.458;2023-04-08T14:19:02;23.02;;;14.63;;
21833;SDS011;11079;51.092;3.458;2023-04-08T14:21:29;19.60;;;15.55;;
21833;SDS011;11079;51.092;3.458;2023-04-08T14:24:09;22.00;;;15.43;;
21833;SDS011;11079;51.092;3.458;2023-04-08T14:26:35;22.17;;;15.75;;
21833;SDS011;11079;51.092;3.458;2023-04-08T14:29:02;18.98;;;14.52;;
21833;SDS011;11079;51.092;3.458;2023-04-08T14:31:29;22.65;;;16.25;;
21833;SDS011;11079;51.092;3.458;2023-04-08T14:33:56;22.80;;;15.55;;
21833;SDS011;11079;51.092;3.458;2023-04-08T14:36:22;20.92;;;14.82;;
21833;SDS011;11079;51.092;3.458;2023-04-08T14:38:48;21.50;;;14.23;;
21833;SDS011;11079;51.092;3.458;2023-04-08T14:41:14;23.98;;;16.67;;
21833;SDS011;11079;51.092;3.458;2023-04-08T14:43:40;24.70;;;17.38;;
21833;SDS011;11079;51.092;3.458;2023-04-08T14:46:05;25.02;;;17.08;;
21833;SDS011;11079;51.092;3.458;2023-04-08T14:48:31;22.63;;;16.80;;
21833;SDS011;11079;51.092;3.458;2023-04-08T14:50:58;24.52;;;17.50;;
21833;SDS011;11079;51.092;3.458;2023-04-08T14:53:25;23.48;;;17.08;;
21833;SDS011;11079;51.092;3.458;2023-04-08T14:55:54;22.88;;;17.23;;
21833;SDS011;11079;51.092;3.458;2023-04-08T14:58:22;23.27;;;17.02;;
21833;SDS011;11079;51.092;3.458;2023-04-08T15:00:48;25.50;;;16.63;;
21833;SDS011;11079;51.092;3.458;2023-04-08T15:03:13;29.05;;;19.48;;
21833;SDS011;11079;51.092;3.458;2023-04-08T15:05:42;29.85;;;19.30;;
21833;SDS011;11079;51.092;3.458;2023-04-08T15:08:12;30.95;;;19.33;;